Latest Weather Observations for Mount Lofty

IDS60901

Issued at 1:41 pm CST Monday 25 July 2016 (issued every 10 minutes, with the page automatically refreshed every 10 minutes)

About weather observations | Map of Adelaide area stations | Latest observations for Adelaide area | Other Formats
Station Details ID: 023842 Name: MOUNT LOFTY Lat: -34.98 Lon: 138.71 Height: 685.0 m
Data from the previous 72 hours. | See also: Recent months at Mount Lofty
Date/Time
CST
Temp
°C
App
Temp
°C
Dew
Point
°C
Rel
Hum
%
Delta-T
°C
Wind Press
QNH
hPa
Press
MSL
hPa
Rain since
9am
mm
Dir  Spd
km/h
Gust
km/h
Spd
kts
Gust
kts
25/01:30pm 6.9 0.4 6.6 98 0.1 WNW 30 52 16 28 - - 2.2
25/01:00pm 6.7 -0.2 6.4 98 0.1 WNW 32 54 17 29 - - 1.0
25/12:30pm 6.4 0.2 6.1 98 0.1 WNW 28 52 15 28 - - 1.0
25/12:00pm 6.2 -0.8 5.9 98 0.1 WNW 32 52 17 28 - - 0.2
25/11:30am 6.2 -0.4 5.9 98 0.1 WNW 30 54 16 29 - - 0.0
25/11:11am 6.1 -0.2 5.8 98 0.1 WNW 28 46 15 25 - - 0.0
25/11:00am 6.2 -0.1 5.9 98 0.1 WNW 28 44 15 24 - - 0.0
25/10:35am 6.2 -0.4 5.9 98 0.1 WNW 30 48 16 26 - - 0.0
25/10:30am 6.2 -0.1 5.9 98 0.1 WNW 28 46 15 25 - - 0.0
25/10:00am 6.1 0.2 5.8 98 0.1 WNW 26 39 14 21 - - 0.0
25/09:31am 6.1 -0.2 5.8 98 0.1 WNW 28 48 15 26 - - 0.0
25/09:30am 6.1 0.2 5.8 98 0.1 WNW 26 48 14 26 - - 0.0
25/09:00am 6.0 -0.3 5.7 98 0.1 WNW 28 52 15 28 - - 21.8
25/08:54am 5.9 -0.4 5.6 98 0.1 WNW 28 48 15 26 - - 21.8
25/08:30am 5.9 0.0 5.6 98 0.1 WNW 26 43 14 23 - - 21.8
25/08:00am 6.0 -0.3 5.7 98 0.1 WNW 28 46 15 25 - - 21.8
25/07:57am 5.9 -0.4 5.6 98 0.1 WNW 28 46 15 25 - - 21.8
25/07:30am 5.9 1.1 5.6 98 0.1 WNW 20 44 11 24 - - 21.8
25/07:00am 5.7 0.5 5.4 98 0.1 WNW 22 43 12 23 - - 21.4
25/06:30am 5.5 0.8 5.2 98 0.1 WNW 19 37 10 20 - - 21.2
25/06:00am 5.5 0.8 5.2 98 0.1 W 19 32 10 17 - - 21.2
25/05:30am 5.3 0.6 5.0 98 0.1 W 19 33 10 18 - - 21.2
25/05:00am 5.3 0.9 5.0 98 0.1 W 17 28 9 15 - - 21.2
25/04:30am 5.1 1.1 4.8 98 0.1 W 15 26 8 14 - - 21.2
25/04:00am 5.2 1.2 4.9 98 0.1 W 15 26 8 14 - - 20.8
25/03:30am 5.2 1.2 4.8 97 0.2 W 15 28 8 15 - - 20.8
25/03:00am 5.1 1.0 4.5 96 0.3 W 15 24 8 13 - - 20.4
25/02:30am 4.4 -0.5 4.0 97 0.2 W 19 39 10 21 - - 20.4
25/02:00am 4.2 0.0 3.9 98 0.1 W 15 24 8 13 - - 20.4
25/01:30am 4.6 0.1 4.3 98 0.1 W 17 28 9 15 - - 20.4
25/01:00am 4.9 0.5 4.6 98 0.1 W 17 35 9 19 - - 20.4
25/12:30am 5.1 0.7 4.8 98 0.1 W 17 24 9 13 - - 19.8
25/12:00am 4.9 1.2 4.6 98 0.1 W 13 24 7 13 - - 19.0
 
Date/Time
CST
Temp
°C
App
Temp
°C
Dew
Point
°C
Rel
Hum
%
Delta-T
°C
Wind Press
QNH
hPa
Press
MSL
hPa
Rain since
9am
mm
Dir  Spd
km/h
Gust
km/h
Spd
kts
Gust
kts
24/11:30pm 5.0 1.0 4.7 98 0.1 W 15 26 8 14 - - 18.2
24/11:00pm 4.3 0.1 4.0 98 0.1 W 15 28 8 15 - - 17.6
24/10:30pm 4.8 -0.6 4.5 98 0.1 W 22 37 12 20 - - 16.6
24/10:00pm 4.5 -1.7 4.2 98 0.1 W 26 52 14 28 - - 15.2
24/09:30pm 5.3 0.9 5.0 98 0.1 W 17 30 9 16 - - 14.8
24/09:00pm 5.4 0.1 5.1 98 0.1 W 22 44 12 24 - - 13.8
24/08:30pm 5.4 0.1 5.1 98 0.1 W 22 41 12 22 - - 12.2
24/08:00pm 5.6 -0.8 5.3 98 0.1 W 28 50 15 27 - - 10.2
24/07:30pm 5.8 -0.6 5.4 97 0.2 WNW 28 50 15 27 - - 9.6
24/07:00pm 5.8 -0.9 5.4 97 0.2 W 30 54 16 29 - - 9.6
24/06:30pm 5.5 -0.9 5.1 97 0.2 W 28 48 15 26 - - 9.0
24/06:02pm 5.6 -0.8 5.2 97 0.2 W 28 50 15 27 - - 8.4
24/06:00pm 5.6 -0.8 5.0 96 0.3 W 28 44 15 24 - - 8.4
24/05:30pm 5.8 -2.1 4.6 92 0.5 W 35 67 19 36 - - 7.6
24/05:00pm 5.6 -1.7 4.4 92 0.5 W 32 57 17 31 - - 7.6
24/04:30pm 5.3 -2.0 4.6 95 0.3 WNW 32 63 17 34 - - 7.6
24/04:00pm 5.6 -1.1 3.8 88 0.8 WNW 28 57 15 31 - - 7.2
24/03:30pm 5.5 -1.5 4.0 90 0.7 WNW 30 57 16 31 - - 7.2
24/03:00pm 5.2 -1.4 4.0 92 0.5 WNW 28 48 15 26 - - 7.2
24/02:55pm 5.2 -1.4 4.0 92 0.5 WNW 28 48 15 26 - - 7.2
24/02:30pm 5.0 -1.0 3.3 89 0.7 WNW 24 44 13 24 - - 7.2
24/02:12pm 4.5 -2.3 3.2 91 0.6 WNW 28 50 15 27 - - 7.2
24/02:00pm 4.9 -1.1 3.4 90 0.6 WNW 24 43 13 23 - - 7.2
24/01:52pm 4.3 -2.5 3.1 92 0.5 WNW 28 48 15 26 - - 7.2
24/01:30pm 3.7 -2.7 3.4 98 0.1 W 26 59 14 32 - - 7.2
24/01:00pm 4.7 -1.1 4.4 98 0.1 WNW 24 44 13 24 - - 7.0
24/12:30pm 3.8 -2.5 3.5 98 0.1 WNW 26 44 14 24 - - 7.0
24/12:00pm 4.1 -1.8 3.8 98 0.1 WNW 24 44 13 24 - - 6.8
24/11:30am 3.6 -1.6 3.3 98 0.1 WNW 20 39 11 21 - - 6.8
24/11:00am 3.4 -2.6 3.1 98 0.1 WNW 24 46 13 25 - - 6.8
24/10:30am 2.8 -2.6 2.5 98 0.1 W 20 33 11 18 - - 6.4
24/10:00am 4.0 -2.7 3.7 98 0.1 NW 28 69 15 37 - - 4.0
24/09:30am 4.2 -2.5 3.9 98 0.1 NW 28 50 15 27 - - 1.2
24/09:00am 4.2 -2.1 3.9 98 0.1 NW 26 44 14 24 - - 1.0
24/08:42am 4.3 -2.3 4.0 98 0.1 NW 28 54 15 29 - - 1.0
24/08:30am 4.3 -2.0 4.0 98 0.1 NW 26 50 14 27 - - 1.0
24/08:19am 4.4 -2.2 4.0 97 0.2 NW 28 46 15 25 - - 1.0
24/08:00am 4.3 -1.6 3.9 97 0.2 NW 24 44 13 24 - - 1.0
24/07:30am 4.2 -1.7 3.8 97 0.2 NW 24 41 13 22 - - 1.0
24/07:00am 4.2 -1.8 3.6 96 0.3 NW 24 48 13 26 - - 1.0
24/06:40am 4.5 -2.2 3.6 94 0.4 NW 28 50 15 27 - - 1.0
24/06:30am 4.4 -1.9 3.5 94 0.4 NW 26 48 14 26 - - 1.0
24/06:00am 4.3 -1.7 3.1 92 0.5 NW 24 39 13 21 - - 1.0
24/05:30am 4.3 -1.4 3.0 91 0.6 NW 22 39 12 21 - - 1.0
24/05:00am 4.2 -1.8 3.3 94 0.4 NW 24 43 13 23 - - 0.8
24/04:30am 4.1 -1.1 3.5 96 0.3 NW 20 39 11 21 - - 0.8
24/04:00am 3.6 -2.0 3.2 97 0.2 NW 22 33 12 18 - - 0.8
24/03:30am 3.4 -1.3 3.1 98 0.1 NW 17 28 9 15 - - 0.8
24/03:00am 3.2 -1.9 2.9 98 0.1 NW 19 32 10 17 - - 0.8
24/02:30am 3.1 -1.7 2.8 98 0.1 NW 17 30 9 16 - - 0.8
24/02:00am 3.5 -1.2 3.2 98 0.1 NW 17 30 9 16 - - 0.8
24/01:30am 3.7 -1.0 3.4 98 0.1 NW 17 30 9 16 - - 0.8
24/01:00am 3.9 -0.7 3.6 98 0.1 NW 17 28 9 15 - - 0.8
24/12:30am 3.6 -0.3 3.3 98 0.1 NW 13 22 7 12 - - 0.8
24/12:00am 4.0 -0.2 3.7 98 0.1 NW 15 26 8 14 - - 0.8
 
Date/Time
CST
Temp
°C
App
Temp
°C
Dew
Point
°C
Rel
Hum
%
Delta-T
°C
Wind Press
QNH
hPa
Press
MSL
hPa
Rain since
9am
mm
Dir  Spd
km/h
Gust
km/h
Spd
kts
Gust
kts
23/11:30pm 4.2 0.0 3.9 98 0.1 NW 15 26 8 14 - - 0.8
23/11:00pm 4.3 0.1 4.0 98 0.1 NW 15 28 8 15 - - 0.8
23/10:30pm 4.0 0.1 3.6 97 0.2 NW 13 24 7 13 - - 0.8
23/10:00pm 4.1 0.3 3.7 97 0.2 NW 13 22 7 12 - - 0.8
23/09:30pm 4.3 1.3 3.9 97 0.2 NW 9 17 5 9 - - 0.8
23/09:00pm 4.3 0.8 3.7 96 0.3 WNW 11 20 6 11 - - 0.8
23/08:30pm 4.3 0.8 3.7 96 0.3 NW 11 19 6 10 - - 0.8
23/08:00pm 4.2 1.5 3.5 95 0.3 NW 7 13 4 7 - - 0.8
23/07:30pm 4.1 1.3 3.4 95 0.3 NW 7 13 4 7 - - 0.8
23/07:00pm 3.9 1.1 3.3 96 0.3 WNW 7 13 4 7 - - 0.8
23/06:30pm 4.1 1.4 3.7 97 0.2 WNW 7 13 4 7 - - 0.8
23/06:00pm 4.7 1.4 4.3 97 0.2 WNW 11 20 6 11 - - 0.8
23/05:30pm 4.6 1.6 4.0 96 0.3 WNW 9 15 5 8 - - 0.8
23/05:00pm 4.8 1.8 4.2 96 0.3 WNW 9 17 5 9 - - 0.8
23/04:30pm 4.6 2.1 3.9 95 0.3 WNW 6 13 3 7 - - 0.8
23/04:00pm 4.3 1.1 3.1 92 0.5 W 9 20 5 11 - - 0.6
23/03:30pm 5.8 2.9 2.8 81 1.3 W 7 17 4 9 - - 0.0
23/03:00pm 6.4 3.8 3.0 79 1.5 WNW 6 17 3 9 - - 0.0
23/02:30pm 6.1 2.8 2.2 76 1.7 W 9 19 5 10 - - 0.0
23/02:00pm 7.1 3.8 2.4 72 2.0 W 9 19 5 10 - - 0.0
23/01:30pm 6.5 2.7 1.6 71 2.1 W 11 24 6 13 - - 0.0
23/01:00pm 6.2 2.3 0.9 69 2.2 W 11 17 6 9 - - 0.0
23/12:30pm 6.4 2.9 1.1 69 2.2 W 9 19 5 10 - - 0.0
23/12:00pm 6.1 2.7 1.8 74 1.8 W 9 22 5 12 - - 0.0
23/11:30am 7.3 4.5 3.2 75 1.8 W 7 13 4 7 - - 0.0
23/11:00am 6.4 3.6 2.9 78 1.5 W 7 13 4 7 - - 0.0
23/10:30am 6.0 3.3 3.7 85 1.0 WSW 7 15 4 8 - - 0.0
23/10:00am 5.0 2.3 3.5 90 0.7 WSW 7 13 4 7 - - 0.0
23/09:30am 5.5 3.1 4.5 93 0.4 SW 6 13 3 7 - - 0.0
23/09:00am 4.7 2.1 4.1 96 0.3 SW 7 13 4 7 - - 8.2
23/08:30am 4.5 1.5 4.1 97 0.2 WSW 9 15 5 8 - - 8.2
23/08:00am 3.9 0.8 3.6 98 0.1 WSW 9 19 5 10 - - 8.2
23/07:30am 4.1 1.0 3.8 98 0.1 WSW 9 22 5 12 - - 8.2
23/07:00am 4.3 0.9 4.0 98 0.1 WSW 11 19 6 10 - - 8.2
23/06:30am 4.5 1.5 4.2 98 0.1 W 9 20 5 11 - - 8.2
23/06:00am 4.5 1.5 4.2 98 0.1 W 9 24 5 13 - - 8.2
23/05:30am 4.6 1.3 4.3 98 0.1 W 11 20 6 11 - - 8.0
23/05:00am 4.7 1.4 4.4 98 0.1 W 11 20 6 11 - - 8.0
23/04:30am 4.6 1.3 4.3 98 0.1 W 11 28 6 15 - - 8.0
23/04:00am 4.5 0.8 4.2 98 0.1 W 13 20 7 11 - - 8.0
23/03:30am 4.7 1.0 4.4 98 0.1 W 13 22 7 12 - - 8.0
23/03:00am 4.6 0.5 4.3 98 0.1 W 15 26 8 14 - - 8.0
23/02:30am 4.5 0.0 4.1 97 0.2 W 17 28 9 15 - - 8.0
23/02:00am 4.5 0.4 4.1 97 0.2 W 15 26 8 14 - - 8.0
23/01:30am 4.6 -0.3 4.2 97 0.2 W 19 33 10 18 - - 8.0
23/01:00am 4.6 0.1 4.2 97 0.2 W 17 32 9 17 - - 8.0
23/12:30am 5.5 -0.6 4.6 94 0.4 W 26 52 14 28 - - 5.2
23/12:00am 5.4 0.0 4.7 95 0.3 W 22 43 12 23 - - 5.0
 
Date/Time
CST
Temp
°C
App
Temp
°C
Dew
Point
°C
Rel
Hum
%
Delta-T
°C
Wind Press
QNH
hPa
Press
MSL
hPa
Rain since
9am
mm
Dir  Spd
km/h
Gust
km/h
Spd
kts
Gust
kts
22/11:30pm 5.3 -0.1 4.7 96 0.3 W 22 39 12 21 - - 5.0
22/11:00pm 5.4 -0.3 5.0 97 0.2 W 24 50 13 27 - - 4.8
22/10:30pm 5.6 -1.8 5.2 97 0.2 WNW 33 59 18 32 - - 4.8
22/10:00pm 5.6 -0.8 5.2 97 0.2 WNW 28 54 15 29 - - 4.8
22/09:32pm 5.5 -1.0 4.9 96 0.3 WNW 28 52 15 28 - - 4.8
22/09:30pm 5.5 -0.5 5.1 97 0.2 WNW 26 52 14 28 - - 4.8
22/09:01pm 5.4 -1.0 5.0 97 0.2 WNW 28 54 15 29 - - 4.8
22/09:00pm 5.3 -0.8 4.9 97 0.2 W 26 52 14 28 - - 4.8
22/08:30pm 4.9 -1.2 4.6 98 0.1 W 26 48 14 26 - - 4.8
22/08:00pm 4.3 -1.2 4.0 98 0.1 WNW 22 44 12 24 - - 4.8
22/07:43pm 4.8 -1.7 4.5 98 0.1 WNW 28 59 15 32 - - 4.8
22/07:30pm 5.0 -0.7 4.7 98 0.1 WNW 24 37 13 20 - - 4.4
22/07:00pm 4.3 -2.3 4.0 98 0.1 W 28 56 15 30 - - 4.4
22/06:31pm 6.2 -0.1 5.9 98 0.1 WNW 28 48 15 26 - - 3.4
22/06:30pm 6.2 0.3 5.9 98 0.1 WNW 26 43 14 23 - - 3.4
22/06:00pm 6.1 -0.2 5.8 98 0.1 WNW 28 50 15 27 - - 3.4
22/05:48pm 6.0 -0.3 5.7 98 0.1 W 28 54 15 29 - - 3.4
22/05:30pm 5.4 -0.6 5.1 98 0.1 W 26 50 14 27 - - 3.2
22/05:00pm 6.6 -0.9 6.3 98 0.1 WNW 35 61 19 33 - - 1.2
22/04:30pm 6.1 -0.2 5.8 98 0.1 WNW 28 59 15 32 - - 1.2
22/04:00pm 5.8 -1.3 5.5 98 0.1 WNW 32 59 17 32 - - 1.2
22/03:51pm 6.4 -1.9 6.1 98 0.1 WNW 39 83 21 45 - - 1.0
22/03:50pm 6.4 -1.9 6.1 98 0.1 WNW 39 83 21 45 - - 1.0
22/03:47pm 6.8 -0.7 6.5 98 0.1 WNW 35 83 19 45 - - 1.0
22/03:46pm 7.0 0.0 6.7 98 0.1 WNW 33 83 18 45 - - 1.0
22/03:30pm 7.3 0.9 7.0 98 0.1 WNW 30 50 16 27 - - 1.0
22/03:00pm 7.7 1.4 7.4 98 0.1 WNW 30 52 16 28 - - 1.0
22/02:47pm 7.5 1.5 7.2 98 0.1 WNW 28 50 15 27 - - 1.0
22/02:30pm 7.8 2.3 7.5 98 0.1 WNW 26 41 14 22 - - 1.0
22/02:00pm 7.9 3.5 7.6 98 0.1 WNW 20 35 11 19 - - 0.8

Latest Capital City Observations: Canberra | Sydney | Melbourne | Brisbane | Adelaide | Perth | Hobart | Darwin

Other Formats:

Comma delimited format used in spreadsheet applications
http://www.bom.gov.au/fwo/IDS60901/IDS60901.95678.axf

JavaScript Object Notation format (JSON) in row-major order
http://www.bom.gov.au/fwo/IDS60901/IDS60901.95678.json